createdAt,value
2023-05-21T00:00:35.754Z,90.1
2023-05-21T00:01:52.055Z,90
2023-05-21T00:03:07.368Z,90
2023-05-21T00:04:23.661Z,89.9
2023-05-21T00:05:39.948Z,90
2023-05-21T00:06:56.249Z,90.1
2023-05-21T00:08:12.532Z,90.2
2023-05-21T00:09:28.839Z,90.4
2023-05-21T00:10:44.151Z,90.4
2023-05-21T00:12:00.435Z,90.3
2023-05-21T00:13:16.725Z,90.4
2023-05-21T00:14:33.030Z,90.5
2023-05-21T00:15:49.330Z,90.7
2023-05-21T00:17:05.615Z,90.8
2023-05-21T00:18:21.902Z,90.8
2023-05-21T00:19:38.196Z,90.8
2023-05-21T00:20:54.492Z,90.7
2023-05-21T00:22:10.782Z,90.8
2023-05-21T00:23:27.076Z,90.8
2023-05-21T00:24:43.370Z,90.8
2023-05-21T00:25:59.668Z,91
2023-05-21T00:27:14.991Z,91
2023-05-21T00:28:31.285Z,91
2023-05-21T00:29:47.579Z,91
2023-05-21T00:31:03.869Z,91
2023-05-21T00:32:20.167Z,91
2023-05-21T00:33:36.442Z,91
2023-05-21T00:34:52.736Z,91
2023-05-21T00:36:09.047Z,91
2023-05-21T00:37:25.341Z,91
2023-05-21T00:38:41.643Z,91
2023-05-21T00:39:57.930Z,90.8
2023-05-21T00:41:14.218Z,90.8
2023-05-21T00:42:30.503Z,90.8
2023-05-21T00:43:45.810Z,90.8
2023-05-21T00:45:02.118Z,91
2023-05-21T00:46:18.411Z,91.2
2023-05-21T00:47:34.702Z,91.3
2023-05-21T00:48:50.994Z,91.3
2023-05-21T00:50:07.276Z,91.2
2023-05-21T00:51:23.572Z,91.3
2023-05-21T00:52:39.873Z,91.3
2023-05-21T00:53:56.163Z,91.3
2023-05-21T00:55:12.460Z,91.2
2023-05-21T00:56:28.761Z,91.3
2023-05-21T00:57:45.042Z,91.4
2023-05-21T00:59:01.360Z,91.4
2023-05-21T01:00:16.656Z,91.5
2023-05-21T01:02:49.240Z,91.6
2023-05-21T01:04:05.541Z,91.6
2023-05-21T01:05:21.828Z,91.7
2023-05-21T01:06:38.128Z,91.7
2023-05-21T01:07:54.416Z,91.9
2023-05-21T01:09:10.710Z,91.9
2023-05-21T01:10:27.009Z,91.9
2023-05-21T01:11:43.298Z,91.8
2023-05-21T01:12:59.584Z,91.8
2023-05-21T01:14:15.886Z,91.8
2023-05-21T01:15:32.176Z,91.6
2023-05-21T01:16:47.492Z,91.7
2023-05-21T01:18:03.781Z,91.7
2023-05-21T01:19:20.081Z,91.6
2023-05-21T01:20:36.373Z,91.5
2023-05-21T01:21:52.656Z,91.5
2023-05-21T01:23:08.000Z,91.5
2023-05-21T01:24:25.239Z,91.6
2023-05-21T01:25:41.536Z,91.7
2023-05-21T01:26:57.836Z,91.8
2023-05-21T01:28:14.125Z,92
2023-05-21T01:29:30.419Z,92.1
2023-05-21T01:30:46.737Z,92.1
2023-05-21T01:32:03.011Z,92.1
2023-05-21T01:33:18.329Z,92.2
2023-05-21T01:34:34.613Z,92.2
2023-05-21T01:35:50.904Z,92.3
2023-05-21T01:37:07.194Z,92.4
2023-05-21T01:38:23.500Z,92.5
2023-05-21T01:39:39.781Z,92.5
2023-05-21T01:40:56.082Z,92.5
2023-05-21T01:42:12.386Z,92.5
2023-05-21T01:43:28.664Z,92.4
2023-05-21T01:44:44.966Z,92.5
2023-05-21T01:46:01.255Z,92.5
2023-05-21T01:47:17.553Z,92.6
2023-05-21T01:48:33.854Z,92.6
2023-05-21T01:49:49.171Z,92.7
2023-05-21T01:51:05.457Z,92.6
2023-05-21T01:52:21.744Z,92.6
2023-05-21T01:53:38.033Z,92.6
2023-05-21T01:54:54.331Z,92.5
2023-05-21T01:56:10.616Z,92.3
2023-05-21T01:57:26.931Z,92.3
2023-05-21T01:58:43.211Z,92.2
2023-05-21T01:59:59.508Z,92.1
2023-05-21T02:01:15.791Z,92.3
2023-05-21T02:02:32.084Z,92.2
2023-05-21T02:03:48.377Z,92.3
2023-05-21T02:05:04.682Z,92.4
2023-05-21T02:06:19.983Z,92.4
2023-05-21T02:07:36.283Z,92.5
2023-05-21T02:08:52.595Z,92.4
2023-05-21T02:10:08.867Z,92.4
2023-05-21T02:11:25.182Z,92.5
2023-05-21T02:12:41.451Z,92.5
2023-05-21T02:13:57.745Z,92.6
2023-05-21T02:15:14.038Z,92.7
2023-05-21T02:16:30.331Z,92.8
2023-05-21T02:17:46.635Z,92.8
2023-05-21T02:19:02.935Z,92.9
2023-05-21T02:20:19.211Z,92.9
2023-05-21T02:21:35.534Z,93
2023-05-21T02:22:50.815Z,93
2023-05-21T02:24:07.112Z,92.9
2023-05-21T02:25:23.409Z,93
2023-05-21T02:26:39.705Z,93
2023-05-21T02:27:55.997Z,93
2023-05-21T02:29:12.287Z,93.1
2023-05-21T02:30:28.601Z,93.1
2023-05-21T02:31:44.902Z,93
2023-05-21T02:33:01.180Z,93.2
2023-05-21T02:34:17.458Z,93.3
2023-05-21T02:35:33.700Z,93.1
2023-05-21T02:36:49.999Z,93.2
2023-05-21T02:38:06.290Z,93.3
2023-05-21T02:39:21.624Z,93.4
2023-05-21T02:40:37.870Z,93.4
2023-05-21T02:41:54.095Z,93.4
2023-05-21T02:43:10.358Z,93.4
2023-05-21T02:44:26.577Z,93.5
2023-05-21T02:45:42.825Z,93.7
2023-05-21T02:46:59.067Z,93.6
2023-05-21T02:48:15.314Z,93.8
2023-05-21T02:49:31.571Z,94
2023-05-21T02:50:47.787Z,94.2
2023-05-21T02:52:04.056Z,94.1
2023-05-21T02:53:20.259Z,94.1
2023-05-21T02:54:36.497Z,94.2
2023-05-21T02:55:51.771Z,94.3
2023-05-21T02:57:08.009Z,94.3
2023-05-21T02:58:24.241Z,94.4
2023-05-21T02:59:40.506Z,94.4
2023-05-21T03:00:56.731Z,94.2
2023-05-21T03:02:12.976Z,94.2
2023-05-21T03:03:29.220Z,94.3
2023-05-21T03:04:45.441Z,94.1
2023-05-21T03:06:01.675Z,94.1
2023-05-21T03:07:17.935Z,94.1
2023-05-21T03:09:50.425Z,94
2023-05-21T03:11:06.641Z,93.8
2023-05-21T03:12:21.894Z,93.9
2023-05-21T03:13:38.156Z,93.9
2023-05-21T03:14:54.373Z,93.8
2023-05-21T03:16:10.605Z,93.7
2023-05-21T03:17:26.861Z,93.8
2023-05-21T03:18:43.089Z,93.8
2023-05-21T03:19:59.362Z,93.8
2023-05-21T03:21:15.565Z,93.9
2023-05-21T03:22:31.819Z,94
2023-05-21T03:23:48.064Z,94
2023-05-21T03:25:04.295Z,94.1
2023-05-21T03:26:20.532Z,94
2023-05-21T03:27:36.765Z,94.1
2023-05-21T03:28:52.024Z,94.2
2023-05-21T03:30:08.276Z,94.1
2023-05-21T03:31:24.517Z,94.1
2023-05-21T03:32:40.740Z,94.1
2023-05-21T03:33:57.013Z,94
2023-05-21T03:35:13.236Z,94
2023-05-21T03:36:29.490Z,94
2023-05-21T03:37:45.722Z,93.9
2023-05-21T03:39:01.945Z,93.9
2023-05-21T03:40:18.183Z,93.9
2023-05-21T03:41:34.429Z,93.9
2023-05-21T03:42:50.681Z,93.9
2023-05-21T03:44:06.906Z,94
2023-05-21T03:46:38.402Z,94.2
2023-05-21T03:47:54.656Z,94.2
2023-05-21T03:50:27.117Z,94.4
2023-05-21T03:51:43.367Z,94.4
2023-05-21T03:52:59.594Z,94.5
2023-05-21T03:54:15.850Z,94.5
2023-05-21T03:55:32.076Z,94.5
2023-05-21T03:56:48.319Z,94.5
2023-05-21T03:58:04.558Z,94.6
2023-05-21T03:59:20.792Z,94.5
2023-05-21T04:00:37.028Z,94.5
2023-05-21T04:01:52.287Z,94.5
2023-05-21T04:03:08.539Z,94.5
2023-05-21T04:04:24.766Z,94.4
2023-05-21T04:05:41.032Z,94.4
2023-05-21T04:06:57.257Z,94.5
2023-05-21T04:08:13.489Z,94.5
2023-05-21T04:09:29.736Z,94.6
2023-05-21T04:10:45.995Z,94.6
2023-05-21T04:12:02.203Z,94.5
2023-05-21T04:13:18.482Z,94.5
2023-05-21T04:14:34.716Z,94.4
2023-05-21T04:15:50.923Z,94.5
2023-05-21T04:17:07.198Z,94.5
2023-05-21T04:18:22.447Z,94.3
2023-05-21T04:19:38.660Z,94.3
2023-05-21T04:20:54.917Z,94.3
2023-05-21T04:22:11.163Z,94
2023-05-21T04:23:27.389Z,93.9
2023-05-21T04:24:43.642Z,93.9
2023-05-21T04:25:58.902Z,93.9
2023-05-21T04:27:15.121Z,93.9
2023-05-21T04:28:31.383Z,93.8
2023-05-21T04:29:47.604Z,93.8
2023-05-21T04:31:03.843Z,93.5
2023-05-21T04:32:20.088Z,93.5
2023-05-21T04:33:36.343Z,93.6
2023-05-21T04:34:52.564Z,93.7
2023-05-21T04:36:08.801Z,93.7
2023-05-21T04:37:25.049Z,93.7
2023-05-21T04:38:41.291Z,93.7
2023-05-21T04:39:57.520Z,93.7
2023-05-21T04:41:13.774Z,93.8
2023-05-21T04:42:29.042Z,93.8
2023-05-21T04:43:45.254Z,93.9
2023-05-21T04:45:01.491Z,93.7
2023-05-21T04:46:17.759Z,93.7
2023-05-21T04:47:34.003Z,93.7
2023-05-21T04:48:50.213Z,93.8
2023-05-21T04:50:06.459Z,93.7
2023-05-21T04:51:22.719Z,93.6
2023-05-21T04:52:38.939Z,93.5
2023-05-21T04:53:55.197Z,93.1
2023-05-21T04:55:11.416Z,92.8
2023-05-21T04:56:27.676Z,92.6
2023-05-21T04:57:43.899Z,92.6
2023-05-21T04:58:59.149Z,92.4
2023-05-21T05:00:15.392Z,92.3
2023-05-21T05:01:31.628Z,92.2
2023-05-21T05:02:47.874Z,92
2023-05-21T05:04:04.111Z,91.9
2023-05-21T05:05:20.364Z,91.8
2023-05-21T05:06:36.594Z,91.6
2023-05-21T05:07:52.833Z,91.4
2023-05-21T05:09:09.089Z,91.1
2023-05-21T05:10:25.310Z,90.8
2023-05-21T05:11:41.553Z,90.6
2023-05-21T05:12:57.816Z,90.6
2023-05-21T05:14:14.032Z,90.4
2023-05-21T05:15:29.283Z,90.2
2023-05-21T05:16:45.536Z,90
2023-05-21T05:18:01.776Z,89.8
2023-05-21T05:19:18.030Z,89.9
2023-05-21T05:21:50.484Z,89.9
2023-05-21T05:23:06.715Z,90
2023-05-21T05:24:22.962Z,89.7
2023-05-21T05:25:39.202Z,89.8
2023-05-21T05:26:55.445Z,89.9
2023-05-21T05:28:11.683Z,89.9
2023-05-21T05:29:27.942Z,89.8
2023-05-21T05:30:44.156Z,89.7
2023-05-21T05:31:59.426Z,89.5
2023-05-21T05:33:15.651Z,89.3
2023-05-21T05:34:31.918Z,89.4
2023-05-21T05:35:48.143Z,89.3
2023-05-21T05:37:04.397Z,89
2023-05-21T05:38:20.622Z,89.2
2023-05-21T05:39:36.883Z,89.1
2023-05-21T05:40:53.114Z,89.1
2023-05-21T05:42:09.335Z,89
2023-05-21T05:43:25.580Z,88.9
2023-05-21T05:44:41.822Z,88.8
2023-05-21T05:45:58.076Z,88.6
2023-05-21T05:47:14.302Z,88.5
2023-05-21T05:48:29.560Z,88.1
2023-05-21T05:49:45.801Z,87.6
2023-05-21T05:51:02.068Z,87.8
2023-05-21T05:52:18.261Z,87.3
2023-05-21T05:53:34.517Z,87.3
2023-05-21T05:54:50.746Z,86.6
2023-05-21T05:56:06.987Z,86.2
2023-05-21T05:57:23.234Z,85.7
2023-05-21T05:58:39.471Z,85.5
2023-05-21T05:59:55.713Z,85.5
2023-05-21T06:01:11.973Z,85.4
2023-05-21T06:02:28.180Z,85
2023-05-21T06:03:44.436Z,85.1
2023-05-21T06:04:59.688Z,85.2
2023-05-21T06:06:15.916Z,84.9
2023-05-21T06:07:32.168Z,84.8
2023-05-21T06:08:48.399Z,84.7
2023-05-21T06:10:04.634Z,84.6
2023-05-21T06:11:20.876Z,83.8
2023-05-21T06:12:37.120Z,84
2023-05-21T06:13:53.353Z,84.2
2023-05-21T06:15:09.594Z,84.2
2023-05-21T06:16:25.867Z,84.1
2023-05-21T06:17:42.074Z,84.4
2023-05-21T06:18:58.320Z,84.1
2023-05-21T06:20:14.554Z,83.7
2023-05-21T06:21:29.811Z,84.1
2023-05-21T06:22:46.053Z,83.9
2023-05-21T06:24:02.292Z,83.8
2023-05-21T06:25:18.537Z,84
2023-05-21T06:26:34.773Z,83.6
2023-05-21T06:27:51.008Z,83.4
2023-05-21T06:29:07.245Z,83.3
2023-05-21T06:30:23.501Z,83.2
2023-05-21T06:32:55.966Z,82.8
2023-05-21T06:34:12.213Z,82.4
2023-05-21T06:36:44.690Z,82.7
2023-05-21T06:37:59.946Z,82.8
2023-05-21T06:39:16.178Z,82.9
2023-05-21T06:40:32.431Z,82.2
2023-05-21T06:41:48.664Z,82.6
2023-05-21T06:43:04.936Z,82.2
2023-05-21T06:44:21.156Z,81.6
2023-05-21T06:45:37.378Z,80.1
2023-05-21T06:46:53.620Z,78.9
2023-05-21T06:48:09.868Z,79.1
2023-05-21T06:49:26.117Z,79.5
2023-05-21T06:50:42.369Z,78.9
2023-05-21T06:51:58.583Z,78.9
2023-05-21T06:53:14.851Z,78
2023-05-21T06:54:30.074Z,77.8
2023-05-21T06:55:46.315Z,77.4
2023-05-21T06:57:02.552Z,77.2
2023-05-21T06:58:18.824Z,76.4
2023-05-21T06:59:35.038Z,75.7
2023-05-21T07:00:51.285Z,74.4
2023-05-21T07:02:07.514Z,74.9
2023-05-21T07:03:23.755Z,73.7
2023-05-21T07:04:39.997Z,73.3
2023-05-21T07:05:56.232Z,73.4
2023-05-21T07:07:12.478Z,72.9
2023-05-21T07:08:28.719Z,72.2
2023-05-21T07:09:44.963Z,71.7
2023-05-21T07:11:00.208Z,72.2
2023-05-21T07:12:16.452Z,71.8
2023-05-21T07:13:32.692Z,72.2
2023-05-21T07:14:48.939Z,71.1
2023-05-21T07:16:05.199Z,69.2
2023-05-21T07:17:21.410Z,69
2023-05-21T07:18:37.659Z,68.7
2023-05-21T07:19:53.883Z,69.4
2023-05-21T07:21:10.155Z,70.7
2023-05-21T07:22:26.369Z,69.2
2023-05-21T07:23:42.606Z,67.3
2023-05-21T07:24:58.880Z,68.9
2023-05-21T07:26:15.110Z,68.1
2023-05-21T07:27:30.371Z,67.2
2023-05-21T07:28:46.611Z,67.5
2023-05-21T07:30:02.826Z,68.3
2023-05-21T07:31:19.056Z,67.2
2023-05-21T07:32:35.310Z,67.1
2023-05-21T07:33:51.550Z,65.3
2023-05-21T07:35:07.786Z,66.8
2023-05-21T07:36:24.030Z,67.3
2023-05-21T07:37:40.257Z,66.9
2023-05-21T07:38:56.492Z,66.2
2023-05-21T07:40:12.740Z,66.9
2023-05-21T07:41:28.989Z,66.3
2023-05-21T07:42:45.248Z,65.7
2023-05-21T07:44:01.490Z,66.6
2023-05-21T07:45:16.726Z,67.5
2023-05-21T07:46:32.966Z,67.6
2023-05-21T07:47:49.198Z,66.3
2023-05-21T07:49:05.437Z,66.6
2023-05-21T07:50:21.670Z,66.1
2023-05-21T07:51:37.915Z,66.5
2023-05-21T07:52:54.166Z,66.5
2023-05-21T07:54:10.392Z,66.6
2023-05-21T07:55:26.672Z,67.4
2023-05-21T07:56:42.903Z,67.7
2023-05-21T07:57:59.121Z,67
2023-05-21T07:59:15.359Z,66.2
2023-05-21T08:00:31.593Z,66.8
2023-05-21T08:01:46.855Z,65.5
2023-05-21T08:03:03.088Z,65
2023-05-21T08:04:19.321Z,65.4
2023-05-21T08:05:35.580Z,65.5
2023-05-21T08:06:51.832Z,65.5
2023-05-21T08:08:08.054Z,65.1
2023-05-21T08:09:24.294Z,64.1
2023-05-21T08:10:40.520Z,63.1
2023-05-21T08:11:56.772Z,61.5
2023-05-21T08:13:13.004Z,62.6
2023-05-21T08:14:29.250Z,62.2
2023-05-21T08:15:45.480Z,62.9
2023-05-21T08:17:01.725Z,63.6
2023-05-21T08:18:16.981Z,63.7
2023-05-21T08:19:33.233Z,64.4
2023-05-21T08:20:49.462Z,64.4
2023-05-21T08:22:05.700Z,64.6
2023-05-21T08:23:21.954Z,63.1
2023-05-21T08:24:38.178Z,62.6
2023-05-21T08:25:54.453Z,62.6
2023-05-21T08:27:10.666Z,62
2023-05-21T08:28:26.927Z,62.5
2023-05-21T08:29:43.138Z,61.1
2023-05-21T08:30:59.386Z,60.3
2023-05-21T08:32:15.614Z,61.1
2023-05-21T08:33:31.887Z,61.5
2023-05-21T08:34:47.119Z,62.2
2023-05-21T08:36:03.357Z,60.3
2023-05-21T08:37:19.598Z,61.3
2023-05-21T08:38:35.828Z,61.2
2023-05-21T08:39:52.073Z,61.9
2023-05-21T08:42:24.688Z,60.2
2023-05-21T08:43:39.942Z,60.9
2023-05-21T08:46:12.417Z,60.8
2023-05-21T08:47:28.658Z,61.7
2023-05-21T08:48:44.913Z,62.2
2023-05-21T08:50:01.136Z,63
2023-05-21T08:51:17.387Z,62.3
2023-05-21T08:52:33.612Z,61.3
2023-05-21T08:53:49.852Z,61.2
2023-05-21T08:55:06.106Z,59.9
2023-05-21T08:56:22.382Z,60.6
2023-05-21T08:57:38.573Z,58.8
2023-05-21T08:58:54.848Z,59.3
2023-05-21T09:00:10.071Z,58.5
2023-05-21T09:01:26.308Z,57.9
2023-05-21T09:02:42.559Z,58.3
2023-05-21T09:03:58.787Z,59.1
2023-05-21T09:05:15.024Z,59.7
2023-05-21T09:06:31.264Z,59
2023-05-21T09:07:47.507Z,59.8
2023-05-21T09:09:03.763Z,60
2023-05-21T09:10:19.988Z,58.5
2023-05-21T09:11:36.231Z,59.1
2023-05-21T09:12:52.470Z,58
2023-05-21T09:14:08.000Z,57.8
2023-05-21T09:15:24.981Z,56.7
2023-05-21T09:16:40.200Z,56.9
2023-05-21T09:17:56.446Z,56.5
2023-05-21T09:19:12.680Z,57.6
2023-05-21T09:20:28.922Z,57.1
2023-05-21T09:21:45.164Z,57.9
2023-05-21T09:23:01.408Z,58.2
2023-05-21T09:24:17.647Z,58.1
2023-05-21T09:25:33.883Z,55.9
2023-05-21T09:26:50.115Z,55.8
2023-05-21T09:28:06.355Z,56
2023-05-21T09:29:22.634Z,57.5
2023-05-21T09:30:38.847Z,55.5
2023-05-21T09:31:55.081Z,54.8
2023-05-21T09:33:10.365Z,55.8
2023-05-21T09:34:26.582Z,57.4
2023-05-21T09:35:42.827Z,57.2
2023-05-21T09:36:59.057Z,57.5
2023-05-21T09:38:15.300Z,55.7
2023-05-21T09:39:31.532Z,54.6
2023-05-21T09:40:47.773Z,54.3
2023-05-21T09:42:04.008Z,55.4
2023-05-21T09:43:20.253Z,53.9
2023-05-21T09:44:36.491Z,53.3
2023-05-21T09:45:52.728Z,53.8
2023-05-21T09:47:08.976Z,55.2
2023-05-21T09:48:25.247Z,54.4
2023-05-21T09:49:40.464Z,55.3
2023-05-21T09:50:56.715Z,53.6
2023-05-21T09:52:12.942Z,54.7
2023-05-21T09:53:29.186Z,54.7
2023-05-21T09:54:45.432Z,55.6
2023-05-21T09:56:01.659Z,56.7
2023-05-21T09:57:17.898Z,56.3
2023-05-21T09:58:34.139Z,56.6
2023-05-21T09:59:50.394Z,55.3
2023-05-21T10:01:06.661Z,55.1
2023-05-21T10:02:22.868Z,55.9
2023-05-21T10:03:39.117Z,56.2
2023-05-21T10:04:55.380Z,55.2
2023-05-21T10:06:10.601Z,55
2023-05-21T10:07:26.851Z,56
2023-05-21T10:08:43.089Z,56.9
2023-05-21T10:09:59.312Z,57.2
2023-05-21T10:11:15.562Z,55.7
2023-05-21T10:12:31.793Z,56.6
2023-05-21T10:13:48.046Z,55.2
2023-05-21T10:15:04.276Z,55.1
2023-05-21T10:17:36.761Z,52.2
2023-05-21T10:18:53.002Z,51.6
2023-05-21T10:20:09.233Z,52.5
2023-05-21T10:21:25.473Z,52.5
2023-05-21T10:22:40.741Z,52.2
2023-05-21T10:23:56.985Z,52.7
2023-05-21T10:25:13.218Z,54.5
2023-05-21T10:26:29.492Z,53.1
2023-05-21T10:27:45.684Z,52.2
2023-05-21T10:29:01.933Z,51.9
2023-05-21T10:30:18.211Z,52.1
2023-05-21T10:31:34.405Z,51.6
2023-05-21T10:32:50.647Z,52.8
2023-05-21T10:34:06.893Z,53.5
2023-05-21T10:35:23.168Z,53.5
2023-05-21T10:36:39.371Z,52.1
2023-05-21T10:37:55.642Z,51.6
2023-05-21T10:39:10.865Z,51.1
2023-05-21T10:40:27.098Z,51.8
2023-05-21T10:41:43.354Z,52.8
2023-05-21T10:42:59.584Z,53.1
2023-05-21T10:44:15.831Z,50.6
2023-05-21T10:45:32.059Z,48.4
2023-05-21T10:46:48.299Z,50
2023-05-21T10:48:04.557Z,49.4
2023-05-21T10:49:20.786Z,49
2023-05-21T10:50:37.028Z,49.2
2023-05-21T10:51:53.277Z,47.5
2023-05-21T10:53:09.515Z,47.1
2023-05-21T10:54:25.744Z,47.9
2023-05-21T10:55:40.995Z,49
2023-05-21T10:56:57.243Z,50.2
2023-05-21T10:58:13.512Z,50.4
2023-05-21T10:59:29.731Z,51.7
2023-05-21T11:00:45.951Z,48
2023-05-21T11:02:02.196Z,48.5
2023-05-21T11:03:18.432Z,49.2
2023-05-21T11:04:34.683Z,46.2
2023-05-21T11:05:50.922Z,47.4
2023-05-21T11:07:07.154Z,47.8
2023-05-21T11:08:23.394Z,49
2023-05-21T11:09:39.645Z,48.1
2023-05-21T11:10:55.875Z,48.8
2023-05-21T11:12:11.144Z,49.6
2023-05-21T11:13:27.367Z,49.4
2023-05-21T11:14:43.649Z,49.6
2023-05-21T11:15:59.852Z,49.6
2023-05-21T11:17:16.086Z,50.1
2023-05-21T11:18:32.337Z,50.5
2023-05-21T11:19:48.606Z,50.8
2023-05-21T11:21:04.814Z,50.5
2023-05-21T11:22:21.048Z,51.1
2023-05-21T11:23:37.299Z,52.7
2023-05-21T11:24:53.544Z,51.8
2023-05-21T11:26:09.812Z,52.3
2023-05-21T11:27:26.008Z,52.1
2023-05-21T11:28:41.310Z,51.9
2023-05-21T11:29:57.499Z,51.1
2023-05-21T11:31:13.758Z,50.3
2023-05-21T11:32:29.983Z,50.9
2023-05-21T11:33:46.234Z,52.1
2023-05-21T11:35:02.477Z,52
2023-05-21T11:36:18.712Z,52.2
2023-05-21T11:37:34.939Z,51.2
2023-05-21T11:38:51.183Z,49.5
2023-05-21T11:40:07.427Z,49
2023-05-21T11:41:23.676Z,49.7
2023-05-21T11:42:39.899Z,50.1
2023-05-21T11:43:56.143Z,50.6
2023-05-21T11:45:11.396Z,50.8
2023-05-21T11:46:27.643Z,49.7
2023-05-21T11:47:43.888Z,49.4
2023-05-21T11:49:00.113Z,49.8
2023-05-21T11:50:16.352Z,50.2
2023-05-21T11:51:32.000Z,50
2023-05-21T11:52:48.839Z,50.3
2023-05-21T11:54:05.086Z,49.5
2023-05-21T11:55:21.313Z,50.1
2023-05-21T11:56:37.562Z,49.8
2023-05-21T11:57:53.799Z,49.9
2023-05-21T11:59:10.049Z,50.2
2023-05-21T12:01:42.514Z,49.3
2023-05-21T12:02:57.766Z,50
2023-05-21T12:04:14.023Z,49.3
2023-05-21T12:05:30.266Z,50.5
2023-05-21T12:06:46.488Z,51
2023-05-21T12:08:02.727Z,50.9
2023-05-21T12:09:18.967Z,50.5
2023-05-21T12:10:35.222Z,51
2023-05-21T12:11:51.463Z,49
2023-05-21T12:13:07.703Z,48.9
2023-05-21T12:14:23.979Z,48.9
2023-05-21T12:16:56.421Z,50.2
2023-05-21T12:18:12.660Z,50.9
2023-05-21T12:19:27.910Z,50.6
2023-05-21T12:20:44.185Z,50.5
2023-05-21T12:22:00.397Z,49.7
2023-05-21T12:23:16.628Z,50.3
2023-05-21T12:24:32.861Z,50.9
2023-05-21T12:25:49.117Z,49.7
2023-05-21T12:27:05.348Z,49.3
2023-05-21T12:28:21.582Z,48.5
2023-05-21T12:30:54.123Z,48.9
2023-05-21T12:32:10.355Z,48.8
2023-05-21T12:33:26.549Z,49.1
2023-05-21T12:35:59.024Z,49.8
2023-05-21T12:37:14.279Z,50.4
2023-05-21T12:38:29.549Z,50.4
2023-05-21T12:39:45.785Z,50.4
2023-05-21T12:41:02.032Z,51.1
2023-05-21T12:42:18.273Z,50.6
2023-05-21T12:43:34.556Z,49.2
2023-05-21T12:44:50.752Z,50
2023-05-21T12:46:06.977Z,50.5
2023-05-21T12:47:23.223Z,50.9
2023-05-21T12:48:39.503Z,49
2023-05-21T12:49:54.722Z,49.6
2023-05-21T12:51:09.988Z,50.1
2023-05-21T12:52:26.260Z,49
2023-05-21T12:53:42.461Z,49
2023-05-21T12:54:58.711Z,50
2023-05-21T12:56:14.938Z,49.8
2023-05-21T12:57:31.174Z,50.5
2023-05-21T12:58:46.444Z,50.8
2023-05-21T13:00:02.682Z,50.1
2023-05-21T13:01:18.915Z,49.6
2023-05-21T13:02:35.168Z,49.1
2023-05-21T13:03:51.403Z,50.1
2023-05-21T13:05:07.629Z,50.1
2023-05-21T13:06:23.874Z,48.6
2023-05-21T13:07:40.120Z,49.2
2023-05-21T13:08:56.365Z,48.9
2023-05-21T13:10:12.606Z,49.7
2023-05-21T13:11:28.844Z,46.7
2023-05-21T13:12:45.082Z,46.6
2023-05-21T13:14:01.316Z,47.3
2023-05-21T13:15:16.568Z,48.4
2023-05-21T13:16:32.822Z,49.1
2023-05-21T13:17:49.045Z,49.3
2023-05-21T13:19:05.292Z,49.4
2023-05-21T13:20:21.526Z,48.8
2023-05-21T13:21:37.766Z,50.3
2023-05-21T13:22:54.010Z,50.5
2023-05-21T13:25:26.491Z,50
2023-05-21T13:26:42.742Z,48.8
2023-05-21T13:27:58.972Z,48.6
2023-05-21T13:29:15.206Z,48.2
2023-05-21T13:30:31.441Z,49.4
2023-05-21T13:31:46.753Z,49.3
2023-05-21T13:33:02.941Z,49.6
2023-05-21T13:34:19.186Z,49.9
2023-05-21T13:35:35.430Z,51.2
2023-05-21T13:36:51.658Z,50.5
2023-05-21T13:38:07.910Z,50.2
2023-05-21T13:39:24.148Z,50.3
2023-05-21T13:40:40.433Z,49.9
2023-05-21T13:41:56.625Z,50.5
2023-05-21T13:43:12.869Z,50.8
2023-05-21T13:44:29.113Z,50.6
2023-05-21T13:45:45.351Z,50.5
2023-05-21T13:47:01.575Z,50.1
2023-05-21T13:48:16.846Z,48.4
2023-05-21T13:49:33.088Z,49
2023-05-21T13:50:49.324Z,48.3
2023-05-21T13:52:05.566Z,49.1
2023-05-21T13:53:21.796Z,49.2
2023-05-21T13:54:38.047Z,48
2023-05-21T13:55:54.275Z,48.7
2023-05-21T13:57:10.518Z,49
2023-05-21T13:58:26.808Z,48.5
2023-05-21T13:59:42.998Z,48.7
2023-05-21T14:00:59.244Z,48.9
2023-05-21T14:02:15.468Z,48.8
2023-05-21T14:03:31.721Z,48.2
2023-05-21T14:04:46.973Z,49.2
2023-05-21T14:06:03.219Z,49.2
2023-05-21T14:07:19.442Z,49.7
2023-05-21T14:08:35.686Z,49.1
2023-05-21T14:09:51.973Z,48.7
2023-05-21T14:11:08.171Z,48.6
2023-05-21T14:12:24.412Z,48.7
2023-05-21T14:13:40.644Z,49.6
2023-05-21T14:14:56.884Z,48.5
2023-05-21T14:16:13.121Z,48.7
2023-05-21T14:17:29.375Z,49
2023-05-21T14:18:45.659Z,49.4
2023-05-21T14:20:01.836Z,49.5
2023-05-21T14:21:18.217Z,49.2
2023-05-21T14:22:34.454Z,50
2023-05-21T14:23:50.685Z,49.5
2023-05-21T14:25:06.923Z,49.3
2023-05-21T14:26:23.164Z,49.3
2023-05-21T14:27:39.455Z,49.5
2023-05-21T14:28:55.646Z,49.2
2023-05-21T14:30:11.885Z,49.6
2023-05-21T14:31:28.115Z,49.5
2023-05-21T14:32:44.410Z,50
2023-05-21T14:34:00.600Z,49.2
2023-05-21T14:35:16.839Z,49.4
2023-05-21T14:36:33.082Z,48.6
2023-05-21T14:37:48.341Z,48.9
2023-05-21T14:39:04.583Z,48.5
2023-05-21T14:40:20.814Z,48.7
2023-05-21T14:41:37.061Z,47.2
2023-05-21T14:42:53.291Z,47.1
2023-05-21T14:44:09.528Z,48.2
2023-05-21T14:45:25.777Z,47.3
2023-05-21T14:46:42.016Z,48.2
2023-05-21T14:47:58.266Z,47.9
2023-05-21T14:49:14.490Z,48.6
2023-05-21T14:50:30.746Z,49.1
2023-05-21T14:51:46.975Z,48.9
2023-05-21T14:53:03.274Z,49.3
2023-05-21T14:54:18.465Z,48.7
2023-05-21T14:55:34.723Z,47.9
2023-05-21T14:56:51.009Z,47.1
2023-05-21T14:58:07.200Z,47.3
2023-05-21T14:59:23.441Z,47.3
2023-05-21T15:00:39.729Z,47.3
2023-05-21T15:01:55.912Z,47.9
2023-05-21T15:03:12.161Z,47.6
2023-05-21T15:04:28.385Z,48.1
2023-05-21T15:05:44.636Z,48.1
2023-05-21T15:07:00.879Z,48.9
2023-05-21T15:08:17.161Z,48.8
2023-05-21T15:09:33.339Z,49.1
2023-05-21T15:10:48.612Z,48.7
2023-05-21T15:12:04.889Z,49.1
2023-05-21T15:13:21.087Z,48.8
2023-05-21T15:14:37.320Z,49.7
2023-05-21T15:15:53.554Z,49.2
2023-05-21T15:17:09.848Z,48.7
2023-05-21T15:18:26.041Z,48.4
2023-05-21T15:19:42.278Z,48.8
2023-05-21T15:20:58.513Z,48.7
2023-05-21T15:22:14.765Z,48.1
2023-05-21T15:23:31.006Z,49.1
2023-05-21T15:24:47.231Z,49.1
2023-05-21T15:26:03.485Z,49.8
2023-05-21T15:27:18.747Z,50.1
2023-05-21T15:28:34.966Z,49.3
2023-05-21T15:29:51.220Z,48.9
2023-05-21T15:31:07.450Z,49.2
2023-05-21T15:32:23.703Z,49.6
2023-05-21T15:33:39.928Z,49.6
2023-05-21T15:34:56.171Z,49.7
2023-05-21T15:36:12.410Z,49.4
2023-05-21T15:37:28.644Z,49.6
2023-05-21T15:38:44.896Z,50.1
2023-05-21T15:40:01.141Z,49.5
2023-05-21T15:41:17.378Z,49
2023-05-21T15:42:33.617Z,49.3
2023-05-21T15:43:48.864Z,49.4
2023-05-21T15:45:05.109Z,49.5
2023-05-21T15:46:21.346Z,49.3
2023-05-21T15:47:37.590Z,49.5
2023-05-21T15:48:53.831Z,49.3
2023-05-21T15:50:10.078Z,49.8
2023-05-21T15:51:26.308Z,49.8
2023-05-21T15:52:42.549Z,49.8
2023-05-21T15:53:58.830Z,49.7
2023-05-21T15:55:15.022Z,50.2
2023-05-21T15:56:31.258Z,50.2
2023-05-21T15:57:47.503Z,50.1
2023-05-21T15:59:03.794Z,50.1
2023-05-21T16:00:18.991Z,50.8
2023-05-21T16:01:35.242Z,50.5
2023-05-21T16:02:51.479Z,51.1
2023-05-21T16:04:07.711Z,51.8
2023-05-21T16:05:23.967Z,51.5
2023-05-21T16:06:40.194Z,51.8
2023-05-21T16:07:56.448Z,52.2
2023-05-21T16:09:12.668Z,52.3
2023-05-21T16:10:28.908Z,52.6
2023-05-21T16:11:45.157Z,53
2023-05-21T16:13:01.397Z,53.3
2023-05-21T16:14:17.632Z,53.3
2023-05-21T16:15:33.886Z,53
2023-05-21T16:16:49.126Z,53.2
2023-05-21T16:18:05.379Z,54
2023-05-21T16:19:21.616Z,53.5
2023-05-21T16:20:37.840Z,54
2023-05-21T16:21:54.141Z,54.1
2023-05-21T16:23:10.387Z,54.1
2023-05-21T16:24:26.566Z,54.6
2023-05-21T16:25:42.814Z,55
2023-05-21T16:26:59.053Z,55.7
2023-05-21T16:28:15.296Z,55.8
2023-05-21T16:29:31.525Z,56
2023-05-21T16:32:04.016Z,56.3
2023-05-21T16:33:19.253Z,54.5
2023-05-21T16:34:35.508Z,52.2
2023-05-21T16:35:51.753Z,51.9
2023-05-21T16:37:07.981Z,52.6
2023-05-21T16:38:24.214Z,52.8
2023-05-21T16:39:40.455Z,53.7
2023-05-21T16:40:56.761Z,54
2023-05-21T16:42:12.993Z,52.2
2023-05-21T16:43:29.171Z,52.4
2023-05-21T16:44:45.427Z,52.3
2023-05-21T16:46:01.710Z,51.5
2023-05-21T16:47:17.896Z,51.1
2023-05-21T16:48:34.139Z,51
2023-05-21T16:49:49.385Z,50.7
2023-05-21T16:51:05.641Z,50.5
2023-05-21T16:52:21.882Z,51.3
2023-05-21T16:53:38.118Z,51.7
2023-05-21T16:54:54.359Z,51.4
2023-05-21T16:56:10.593Z,50.6
2023-05-21T16:57:26.831Z,50.7
2023-05-21T16:58:43.079Z,50.6
2023-05-21T16:59:59.312Z,51.1
2023-05-21T17:01:15.561Z,51
2023-05-21T17:02:31.784Z,51
2023-05-21T17:03:48.034Z,51.4
2023-05-21T17:05:04.267Z,51.5
2023-05-21T17:06:19.535Z,51.1
2023-05-21T17:07:35.759Z,51.6
2023-05-21T17:08:52.012Z,51.5
2023-05-21T17:10:08.243Z,51.8
2023-05-21T17:11:24.486Z,52.3
2023-05-21T17:13:56.967Z,52.6
2023-05-21T17:15:12.221Z,53
2023-05-21T17:16:28.462Z,53.1
2023-05-21T17:17:44.701Z,53.6
2023-05-21T17:19:00.950Z,54
2023-05-21T17:20:17.181Z,54.2
2023-05-21T17:21:33.413Z,54.5
2023-05-21T17:22:49.655Z,55